Time;durP1;ratioP1;P1;durP2;ratioP2;P2;SDS_P1;SDS_P2;PMS_P1;PMS_P2;Temp;Humidity;BMP_temperature;BMP_pressure;BME280_temperature;BME280_humidity;BME280_pressure;Samples;Min_cycle;Max_cycle;Signal;HPM_P1;HPM_P2
2021/03/16 00:02:09;;;;;;;4.22;1.08;;;;;12.20;102011.00;;;;5085826;28;20187;-80
2021/03/16 00:04:36;;;;;;;11.23;1.17;;;;;12.20;102013.00;;;;5078104;28;20202;-79
2021/03/16 00:07:04;;;;;;;9.27;0.82;;;;;12.20;102009.00;;;;5087710;28;20675;-79
2021/03/16 00:09:32;;;;;;;3.28;0.80;;;;;12.20;102002.00;;;;5084390;28;20774;-79
2021/03/16 00:11:59;;;;;;;2.72;0.52;;;;;12.20;101996.00;;;;5076072;28;20579;-79
2021/03/16 00:14:26;;;;;;;5.03;0.98;;;;;12.20;102011.00;;;;5085814;28;20190;-79
2021/03/16 00:16:52;;;;;;;3.30;0.80;;;;;12.20;102003.00;;;;5088099;28;20213;-78
2021/03/16 00:19:19;;;;;;;5.65;0.93;;;;;12.10;102003.00;;;;5087685;28;20233;-79
2021/03/16 00:21:46;;;;;;;6.03;0.88;;;;;12.10;102011.00;;;;5079026;28;20197;-79
2021/03/16 00:24:13;;;;;;;4.45;0.60;;;;;12.10;102013.00;;;;5087985;28;20668;-79
2021/03/16 00:26:41;;;;;;;8.70;1.55;;;;;12.10;102006.00;;;;5079127;28;20202;-79
2021/03/16 00:29:08;;;;;;;5.20;0.70;;;;;12.10;102021.00;;;;5088608;28;20243;-79
2021/03/16 00:31:35;;;;;;;6.93;0.98;;;;;12.10;102024.00;;;;5074052;28;20723;-79
2021/03/16 00:34:01;;;;;;;7.03;0.63;;;;;12.00;102021.00;;;;5088326;28;20194;-79
2021/03/16 00:36:28;;;;;;;5.88;1.00;;;;;12.00;102025.00;;;;5087911;28;20195;-79
2021/03/16 00:38:55;;;;;;;2.42;0.65;;;;;12.00;102027.00;;;;5089005;28;20222;-79
2021/03/16 00:41:22;;;;;;;6.28;0.70;;;;;12.00;102020.00;;;;5089667;28;20194;-78
2021/03/16 00:43:51;;;;;;;2.83;0.98;;;;;12.00;102030.00;;;;5088366;28;20675;-78
2021/03/16 00:46:18;;;;;;;7.93;0.73;;;;;12.00;102029.00;;;;5092156;28;20251;-79
2021/03/16 00:48:45;;;;;;;6.30;1.08;;;;;12.00;102037.00;;;;5090479;28;20237;-79
2021/03/16 00:51:12;;;;;;;2.67;0.63;;;;;12.00;102033.00;;;;5087274;28;20410;-79
2021/03/16 00:53:38;;;;;;;6.47;0.90;;;;;12.00;102030.00;;;;5091759;28;20206;-79
2021/03/16 00:56:06;;;;;;;6.47;1.38;;;;;12.00;102031.00;;;;5085013;28;20616;-79
2021/03/16 00:58:32;;;;;;;3.55;0.38;;;;;12.00;102024.00;;;;5075138;28;20202;-79
2021/03/16 01:01:01;;;;;;;5.10;0.88;;;;;12.00;102030.00;;;;5078398;28;20721;-79
2021/03/16 01:03:28;;;;;;;3.00;0.80;;;;;12.00;102036.00;;;;5083285;28;20238;-79
2021/03/16 01:05:55;;;;;;;5.80;1.08;;;;;12.00;102038.00;;;;5075287;28;20205;-79
2021/03/16 01:08:22;;;;;;;5.85;1.00;;;;;12.00;102041.00;;;;5091053;28;20194;-79
2021/03/16 01:10:50;;;;;;;5.75;1.27;;;;;12.00;102042.00;;;;5089273;28;20209;-78
2021/03/16 01:13:18;;;;;;;7.15;0.95;;;;;12.00;102046.00;;;;5090536;28;20260;-79
2021/03/16 01:15:44;;;;;;;2.70;0.80;;;;;12.00;102055.00;;;;5090320;28;20206;-79
2021/03/16 01:18:13;;;;;;;5.55;0.95;;;;;12.10;102050.00;;;;5090706;28;20660;-79
2021/03/16 01:20:40;;;;;;;7.70;0.63;;;;;12.10;102055.00;;;;5082132;28;20230;-79
2021/03/16 01:23:07;;;;;;;3.15;0.50;;;;;12.10;102059.00;;;;5084175;28;20209;-79
2021/03/16 01:25:34;;;;;;;3.53;0.55;;;;;12.10;102056.00;;;;5089876;28;20197;-79
2021/03/16 01:28:00;;;;;;;2.63;0.45;;;;;12.10;102053.00;;;;5090134;28;20222;-79
2021/03/16 01:30:28;;;;;;;7.63;1.23;;;;;12.10;102045.00;;;;5090480;28;20217;-79
2021/03/16 01:32:55;;;;;;;3.58;0.70;;;;;12.10;102042.00;;;;5088708;28;20240;-79
2021/03/16 01:35:23;;;;;;;5.28;0.65;;;;;12.10;102050.00;;;;5087510;28;20198;-79
2021/03/16 01:37:51;;;;;;;5.25;0.98;;;;;12.10;102046.00;;;;5089294;28;20243;-79
2021/03/16 01:40:23;;;;;;;3.05;0.85;;;;;12.20;102059.00;;;;5089621;28;20285;-79
2021/03/16 01:42:50;;;;;;;3.15;0.77;;;;;12.20;102066.00;;;;5089637;28;20672;-79
2021/03/16 01:45:18;;;;;;;2.17;0.63;;;;;12.20;102050.00;;;;5088106;28;20243;-79
2021/03/16 01:47:47;;;;;;;3.65;0.52;;;;;12.10;102061.00;;;;5088869;28;20222;-79
2021/03/16 01:50:18;;;;;;;3.42;0.50;;;;;12.10;102061.00;;;;5090141;28;20590;-79
2021/03/16 01:52:47;;;;;;;5.65;0.70;;;;;12.10;102060.00;;;;5089540;28;20198;-79
2021/03/16 01:55:15;;;;;;;3.08;0.70;;;;;12.20;102054.00;;;;5084365;28;20194;-79
2021/03/16 01:57:44;;;;;;;4.47;0.60;;;;;12.20;102056.00;;;;5089645;28;20197;-78
2021/03/16 02:00:11;;;;;;;3.42;0.77;;;;;12.10;102055.00;;;;5083572;28;20229;-79
2021/03/16 02:02:38;;;;;;;5.20;1.02;;;;;12.20;102064.00;;;;5077502;28;20198;-78
2021/03/16 02:05:07;;;;;;;4.28;0.50;;;;;12.20;102060.00;;;;5090046;28;20198;-79
2021/03/16 02:07:39;;;;;;;2.63;0.77;;;;;12.10;102063.00;;;;5088732;28;20702;-79
2021/03/16 02:10:14;;;;;;;1.95;0.73;;;;;12.10;102057.00;;;;5077045;28;20257;-79
2021/03/16 02:12:48;;;;;;;5.57;0.70;;;;;12.10;102054.00;;;;5084820;28;20656;-79
2021/03/16 02:15:20;;;;;;;5.13;0.50;;;;;12.20;102055.00;;;;5088800;28;20202;-79
2021/03/16 02:17:54;;;;;;;4.22;0.70;;;;;12.20;102066.00;;;;5086393;28;20235;-79
2021/03/16 02:20:34;;;;;;;4.05;0.75;;;;;12.10;102055.00;;;;5081964;28;20230;-79
2021/03/16 02:23:02;;;;;;;8.75;0.82;;;;;12.20;102066.00;;;;5084235;28;20232;-79
2021/03/16 02:25:43;;;;;;;5.93;1.80;;;;;12.10;102064.00;;;;5089383;28;20204;-79
2021/03/16 02:28:29;;;;;;;2.38;0.45;;;;;12.20;102066.00;;;;5083913;28;20198;-79
2021/03/16 02:30:59;;;;;;;2.42;0.40;;;;;12.20;102060.00;;;;5089619;28;20222;-79
2021/03/16 02:33:28;;;;;;;4.20;0.55;;;;;12.20;102063.00;;;;5084917;28;20216;-79
2021/03/16 02:35:58;;;;;;;2.60;0.60;;;;;12.20;102066.00;;;;5075277;28;20194;-79
2021/03/16 02:38:30;;;;;;;2.88;0.40;;;;;12.20;102067.00;;;;5083033;28;20243;-79
2021/03/16 02:40:58;;;;;;;5.47;0.55;;;;;12.20;102075.00;;;;5088190;28;20226;-77
2021/03/16 02:43:25;;;;;;;6.32;0.60;;;;;12.20;102065.00;;;;5090124;28;20206;-77
2021/03/16 02:45:53;;;;;;;2.42;0.65;;;;;12.20;102063.00;;;;5077823;28;20199;-77
2021/03/16 02:48:22;;;;;;;1.83;0.52;;;;;12.30;102066.00;;;;5084660;28;20229;-77
2021/03/16 02:50:49;;;;;;;2.10;0.40;;;;;12.30;102065.00;;;;5089305;28;20556;-77
2021/03/16 02:53:17;;;;;;;2.00;0.43;;;;;12.20;102063.00;;;;5089294;28;20203;-78
2021/03/16 02:55:45;;;;;;;3.33;0.82;;;;;12.30;102062.00;;;;5088796;28;20724;-78
2021/03/16 02:58:13;;;;;;;3.95;0.90;;;;;12.20;102066.00;;;;5089184;28;20202;-78
2021/03/16 03:00:42;;;;;;;3.72;0.63;;;;;12.30;102072.00;;;;5089175;28;20218;-78
2021/03/16 03:03:11;;;;;;;3.38;0.60;;;;;12.30;102067.00;;;;5090271;28;20202;-78
2021/03/16 03:05:40;;;;;;;3.83;0.85;;;;;12.30;102068.00;;;;5088719;28;20206;-78
2021/03/16 03:08:10;;;;;;;9.52;1.20;;;;;12.30;102069.00;;;;5088895;28;20194;-78
2021/03/16 03:10:37;;;;;;;4.60;0.93;;;;;12.30;102077.00;;;;5085768;28;20206;-78
2021/03/16 03:13:04;;;;;;;2.15;0.60;;;;;12.30;102072.00;;;;5087312;28;20190;-78
2021/03/16 03:15:31;;;;;;;3.00;0.52;;;;;12.40;102069.00;;;;5088766;28;20218;-77
2021/03/16 03:17:59;;;;;;;3.92;0.77;;;;;12.40;102078.00;;;;5090537;28;20194;-78
2021/03/16 03:20:26;;;;;;;6.00;0.80;;;;;12.40;102082.00;;;;5083176;28;20276;-78
2021/03/16 03:22:59;;;;;;;6.15;1.10;;;;;12.40;102091.00;;;;5086345;28;20396;-77
2021/03/16 03:25:31;;;;;;;3.08;0.47;;;;;12.40;102095.00;;;;5082547;28;20194;-78
2021/03/16 03:28:01;;;;;;;4.93;0.77;;;;;12.40;102095.00;;;;5077255;28;20443;-78
2021/03/16 03:30:29;;;;;;;3.60;0.47;;;;;12.40;102093.00;;;;5069307;28;20223;-77
2021/03/16 03:33:00;;;;;;;5.60;0.63;;;;;12.40;102098.00;;;;5076592;28;20660;-78
2021/03/16 03:35:28;;;;;;;2.60;0.60;;;;;12.40;102107.00;;;;5087882;28;20190;-77
2021/03/16 03:37:57;;;;;;;3.08;0.68;;;;;12.40;102109.00;;;;5088563;28;20197;-78
2021/03/16 03:40:25;;;;;;;3.33;0.60;;;;;12.40;102110.00;;;;5088772;28;20607;-78
2021/03/16 03:42:54;;;;;;;5.47;0.70;;;;;12.40;102102.00;;;;5088166;28;20273;-78
2021/03/16 03:45:22;;;;;;;4.07;0.90;;;;;12.40;102114.00;;;;5076560;28;20303;-78
2021/03/16 03:47:51;;;;;;;3.35;0.57;;;;;12.40;102118.00;;;;5077108;28;20702;-78
2021/03/16 03:50:18;;;;;;;5.07;0.70;;;;;12.40;102118.00;;;;5083663;28;20190;-78
2021/03/16 03:52:46;;;;;;;5.93;1.30;;;;;12.40;102122.00;;;;5076056;28;20703;-77
2021/03/16 03:55:16;;;;;;;6.50;0.70;;;;;12.40;102118.00;;;;5087441;28;20202;-77
2021/03/16 03:57:43;;;;;;;3.97;0.98;;;;;12.40;102130.00;;;;5086701;28;20206;-77
2021/03/16 04:00:13;;;;;;;6.43;0.77;;;;;12.30;102119.00;;;;5087133;28;20245;-78
2021/03/16 04:02:41;;;;;;;4.38;0.90;;;;;12.30;102114.00;;;;5087542;28;20236;-77
2021/03/16 04:05:09;;;;;;;5.75;1.02;;;;;12.30;102114.00;;;;5079117;28;20256;-77
2021/03/16 04:07:36;;;;;;;4.32;0.95;;;;;12.30;102120.00;;;;5066988;28;20234;-78
2021/03/16 04:10:06;;;;;;;4.72;0.75;;;;;12.30;102118.00;;;;5080760;28;20205;-77
2021/03/16 04:12:35;;;;;;;3.60;0.65;;;;;12.30;102126.00;;;;5078964;28;20209;-78
2021/03/16 04:15:04;;;;;;;4.18;0.65;;;;;12.40;102128.00;;;;5084042;28;20207;-77
2021/03/16 04:17:31;;;;;;;2.80;0.65;;;;;12.40;102132.00;;;;5077179;28;20213;-77
2021/03/16 04:19:58;;;;;;;7.60;0.80;;;;;12.40;102133.00;;;;5082786;28;20253;-77
2021/03/16 04:22:26;;;;;;;5.68;0.82;;;;;12.40;102136.00;;;;5082134;28;20284;-77
2021/03/16 04:24:55;;;;;;;2.15;0.80;;;;;12.30;102135.00;;;;5086862;28;20202;-77
2021/03/16 04:27:22;;;;;;;6.40;1.30;;;;;12.40;102140.00;;;;5085328;28;20190;-78
2021/03/16 04:29:50;;;;;;;7.15;1.10;;;;;12.30;102140.00;;;;5087347;28;20206;-77
2021/03/16 04:32:17;;;;;;;6.55;1.02;;;;;12.40;102145.00;;;;5087614;28;20263;-78
2021/03/16 04:34:43;;;;;;;4.47;1.42;;;;;12.40;102148.00;;;;5085634;28;20202;-78
2021/03/16 04:37:10;;;;;;;5.60;1.65;;;;;12.30;102152.00;;;;5086280;28;20194;-78
2021/03/16 04:39:37;;;;;;;3.78;0.80;;;;;12.30;102148.00;;;;5087196;28;20267;-77
2021/03/16 04:42:04;;;;;;;7.35;0.60;;;;;12.30;102144.00;;;;5087831;28;20247;-77
2021/03/16 04:44:31;;;;;;;5.75;0.80;;;;;12.40;102142.00;;;;5074607;28;20199;-77
2021/03/16 04:46:58;;;;;;;6.75;0.90;;;;;12.40;102147.00;;;;5069712;28;20202;-77
2021/03/16 04:49:25;;;;;;;5.80;0.70;;;;;12.40;102152.00;;;;5086396;28;20202;-77
2021/03/16 04:51:52;;;;;;;5.60;0.88;;;;;12.40;102156.00;;;;5087093;28;20585;-78
2021/03/16 04:54:19;;;;;;;4.55;0.90;;;;;12.40;102146.00;;;;5076627;28;20198;-77
2021/03/16 04:56:46;;;;;;;2.22;0.55;;;;;12.40;102155.00;;;;5083663;28;20199;-77
2021/03/16 04:59:12;;;;;;;3.30;0.90;;;;;12.40;102148.00;;;;5087859;28;20219;-78
2021/03/16 05:01:39;;;;;;;5.05;1.08;;;;;12.40;102153.00;;;;5085660;28;20214;-77
2021/03/16 05:04:07;;;;;;;2.15;0.65;;;;;12.40;102156.00;;;;5085849;28;20986;-78
2021/03/16 05:06:34;;;;;;;4.30;0.63;;;;;12.40;102157.00;;;;5088382;28;20190;-78
2021/03/16 05:09:00;;;;;;;7.45;1.20;;;;;12.40;102158.00;;;;5087691;28;20251;-78
2021/03/16 05:11:27;;;;;;;5.50;0.75;;;;;12.40;102154.00;;;;5086542;28;20186;-78
2021/03/16 05:13:54;;;;;;;2.75;0.47;;;;;12.40;102159.00;;;;5086549;28;20277;-78
2021/03/16 05:16:21;;;;;;;5.15;1.20;;;;;12.40;102158.00;;;;5080012;28;20627;-77
2021/03/16 05:18:48;;;;;;;3.53;1.00;;;;;12.40;102164.00;;;;5067879;28;20236;-78
2021/03/16 05:21:16;;;;;;;2.55;0.60;;;;;12.30;102178.00;;;;5072123;28;20719;-78
2021/03/16 05:23:42;;;;;;;5.50;1.40;;;;;12.30;102169.00;;;;5087336;28;20206;-78
2021/03/16 05:26:09;;;;;;;1.98;0.63;;;;;12.30;102170.00;;;;5081126;28;20203;-77
2021/03/16 05:28:36;;;;;;;8.85;0.80;;;;;12.30;102167.00;;;;5090592;28;20201;-77
2021/03/16 05:31:02;;;;;;;5.78;0.70;;;;;12.30;102176.00;;;;5084428;28;20211;-78
2021/03/16 05:33:29;;;;;;;4.45;0.80;;;;;12.30;102174.00;;;;5086519;28;20987;-78
2021/03/16 05:35:56;;;;;;;7.25;1.00;;;;;12.20;102176.00;;;;5074690;28;20199;-78
2021/03/16 05:38:23;;;;;;;5.15;0.90;;;;;12.20;102166.00;;;;5077592;28;20194;-78
2021/03/16 05:40:50;;;;;;;4.38;1.20;;;;;12.20;102166.00;;;;5078377;28;20218;-77
2021/03/16 05:43:18;;;;;;;6.93;1.17;;;;;12.20;102174.00;;;;5071849;28;20587;-78
2021/03/16 05:45:45;;;;;;;1.92;0.45;;;;;12.20;102174.00;;;;5085578;28;20224;-78
2021/03/16 05:48:13;;;;;;;2.33;0.60;;;;;12.20;102169.00;;;;5090516;28;20229;-78
2021/03/16 05:50:40;;;;;;;3.67;0.77;;;;;12.20;102177.00;;;;5091264;28;20194;-78
2021/03/16 05:53:07;;;;;;;2.47;0.60;;;;;12.20;102168.00;;;;5091055;28;20759;-77
2021/03/16 05:55:35;;;;;;;3.85;1.10;;;;;12.20;102173.00;;;;5079435;28;20214;-77
2021/03/16 05:58:02;;;;;;;3.45;0.60;;;;;12.20;102180.00;;;;5090878;28;20194;-77
2021/03/16 06:00:29;;;;;;;5.53;1.08;;;;;12.20;102185.00;;;;5075316;28;20227;-77
2021/03/16 06:02:55;;;;;;;3.13;0.40;;;;;12.20;102183.00;;;;5084915;28;20194;-77
2021/03/16 06:05:22;;;;;;;4.13;0.98;;;;;12.20;102181.00;;;;5089045;28;20198;-77
2021/03/16 06:07:50;;;;;;;7.07;1.17;;;;;12.20;102176.00;;;;5080680;28;20249;-78
2021/03/16 06:10:21;;;;;;;8.63;1.77;;;;;12.20;102187.00;;;;5085625;28;20293;-77
2021/03/16 06:12:49;;;;;;;1.45;0.50;;;;;12.30;102185.00;;;;5086274;28;20656;-77
2021/03/16 06:15:18;;;;;;;6.93;1.23;;;;;12.30;102184.00;;;;5086053;28;20187;-77
2021/03/16 06:17:47;;;;;;;6.40;1.20;;;;;12.30;102191.00;;;;5085733;28;20225;-77
2021/03/16 06:20:25;;;;;;;5.00;0.73;;;;;12.30;102189.00;;;;5082971;28;20584;-77
2021/03/16 06:23:03;;;;;;;1.98;0.82;;;;;12.30;102179.00;;;;5086269;28;20213;-77
2021/03/16 06:25:33;;;;;;;2.67;0.22;;;;;12.40;102191.00;;;;5089538;28;20201;-77
2021/03/16 06:28:02;;;;;;;5.25;1.20;;;;;12.40;102185.00;;;;5088042;28;20225;-77
2021/03/16 06:30:29;;;;;;;3.55;1.05;;;;;12.40;102184.00;;;;5088051;28;20572;-77
2021/03/16 06:32:56;;;;;;;3.20;0.90;;;;;12.50;102185.00;;;;5076171;28;20206;-75
2021/03/16 06:35:23;;;;;;;5.43;1.27;;;;;12.50;102185.00;;;;5069422;28;20687;-75
2021/03/16 06:38:04;;;;;;;7.38;1.30;;;;;12.40;102189.00;;;;5070085;28;20561;-75
2021/03/16 06:40:33;;;;;;;6.65;1.05;;;;;12.50;102190.00;;;;5070221;28;20235;-77
2021/03/16 06:43:05;;;;;;;8.57;0.82;;;;;12.50;102183.00;;;;5069960;28;20560;-77
2021/03/16 06:45:33;;;;;;;7.28;1.20;;;;;12.60;102184.00;;;;5068882;28;20210;-76
2021/03/16 06:48:01;;;;;;;2.85;0.60;;;;;12.60;102189.00;;;;5089364;28;20766;-77
2021/03/16 06:50:30;;;;;;;8.48;1.15;;;;;12.60;102195.00;;;;5088444;28;20198;-76
2021/03/16 06:52:58;;;;;;;3.90;1.13;;;;;12.60;102193.00;;;;5086686;28;20556;-77
2021/03/16 06:55:24;;;;;;;2.15;0.35;;;;;12.60;102198.00;;;;5089853;28;20664;-76
2021/03/16 06:57:51;;;;;;;5.75;0.77;;;;;12.60;102193.00;;;;5089547;28;20206;-77
2021/03/16 07:00:20;;;;;;;3.28;0.90;;;;;12.70;102201.00;;;;5089798;28;20232;-77
2021/03/16 07:02:47;;;;;;;3.42;0.73;;;;;12.70;102198.00;;;;5089472;28;20695;-77
2021/03/16 07:05:24;;;;;;;3.25;0.52;;;;;12.70;102198.00;;;;5089470;28;20251;-76
2021/03/16 07:07:53;;;;;;;5.10;0.77;;;;;12.70;102200.00;;;;5069865;28;20668;-77
2021/03/16 07:10:22;;;;;;;5.97;0.80;;;;;12.70;102208.00;;;;5068766;28;20199;-76
2021/03/16 07:12:49;;;;;;;3.35;0.73;;;;;12.70;102208.00;;;;5085929;28;20209;-76
2021/03/16 07:15:18;;;;;;;7.97;1.20;;;;;12.80;102214.00;;;;5089640;28;20202;-76
2021/03/16 07:17:45;;;;;;;1.40;0.50;;;;;12.80;102202.00;;;;5089104;28;20194;-76
2021/03/16 07:20:15;;;;;;;2.72;0.88;;;;;12.80;102204.00;;;;5089584;28;20229;-76
2021/03/16 07:22:49;;;;;;;9.48;1.05;;;;;12.80;102213.00;;;;5089124;28;20202;-76
2021/03/16 07:25:17;;;;;;;5.25;1.48;;;;;12.90;102209.00;;;;5088937;28;20802;-76
2021/03/16 07:27:44;;;;;;;5.07;1.20;;;;;12.90;102207.00;;;;5089359;28;20644;-76
2021/03/16 07:30:13;;;;;;;5.50;0.70;;;;;12.90;102221.00;;;;5089460;28;20272;-76
2021/03/16 07:32:42;;;;;;;4.43;0.57;;;;;13.00;102218.00;;;;5088397;28;20264;-76
2021/03/16 07:35:10;;;;;;;6.28;1.17;;;;;13.00;102217.00;;;;5089835;28;20217;-76
2021/03/16 07:37:37;;;;;;;6.90;1.30;;;;;13.00;102214.00;;;;5088663;28;20198;-76
2021/03/16 07:40:08;;;;;;;5.72;0.98;;;;;13.00;102216.00;;;;5088912;28;20731;-77
2021/03/16 07:42:36;;;;;;;5.70;0.90;;;;;13.00;102221.00;;;;5088867;28;20208;-77
2021/03/16 07:45:03;;;;;;;6.80;1.05;;;;;13.00;102222.00;;;;5088996;28;20202;-76
2021/03/16 07:47:34;;;;;;;6.70;1.45;;;;;13.00;102229.00;;;;5088897;28;20232;-76
2021/03/16 07:50:03;;;;;;;3.85;0.80;;;;;13.00;102233.00;;;;5072099;28;20199;-76
2021/03/16 07:52:30;;;;;;;5.47;1.17;;;;;13.10;102225.00;;;;5068580;28;20211;-77
2021/03/16 07:54:57;;;;;;;5.72;0.90;;;;;13.10;102236.00;;;;5083582;28;20201;-77
2021/03/16 07:57:29;;;;;;;4.18;1.00;;;;;13.10;102246.00;;;;5081233;28;20202;-78
2021/03/16 07:59:59;;;;;;;3.33;0.63;;;;;13.10;102254.00;;;;5074907;28;20214;-76
2021/03/16 08:02:29;;;;;;;4.90;1.10;;;;;13.10;102232.00;;;;5069135;28;20203;-77
2021/03/16 08:04:56;;;;;;;5.10;0.80;;;;;13.10;102234.00;;;;5088221;28;20582;-76
2021/03/16 08:07:28;;;;;;;1.80;0.43;;;;;13.10;102236.00;;;;5089005;28;20205;-76
2021/03/16 08:09:57;;;;;;;4.18;0.77;;;;;13.10;102233.00;;;;5088581;28;20213;-75
2021/03/16 08:12:26;;;;;;;3.47;0.80;;;;;13.10;102232.00;;;;5089059;28;20205;-76
2021/03/16 08:14:54;;;;;;;4.40;0.77;;;;;13.10;102237.00;;;;5088324;28;20194;-78
2021/03/16 08:17:28;;;;;;;6.15;1.20;;;;;13.10;102238.00;;;;5076095;28;20202;-76
2021/03/16 08:19:54;;;;;;;3.42;1.00;;;;;13.20;102241.00;;;;5072827;28;20222;-78
2021/03/16 08:22:22;;;;;;;3.53;0.98;;;;;13.20;102248.00;;;;5087969;28;20251;-78
2021/03/16 08:24:53;;;;;;;6.05;1.20;;;;;13.20;102250.00;;;;5081864;28;20194;-78
2021/03/16 08:27:20;;;;;;;2.60;0.80;;;;;13.20;102252.00;;;;5080164;28;20195;-78
2021/03/16 08:29:48;;;;;;;3.17;0.88;;;;;13.20;102250.00;;;;5080226;28;20667;-77
2021/03/16 08:32:17;;;;;;;4.97;0.70;;;;;13.30;102244.00;;;;5072255;28;20252;-77
2021/03/16 08:34:45;;;;;;;4.55;1.25;;;;;13.30;102247.00;;;;5069594;28;20233;-77
2021/03/16 08:37:22;;;;;;;7.53;1.00;;;;;13.30;102253.00;;;;5069377;28;20202;-77
2021/03/16 08:39:51;;;;;;;9.75;0.77;;;;;13.40;102251.00;;;;5077545;28;20222;-78
2021/03/16 08:42:19;;;;;;;4.18;1.25;;;;;13.50;102265.00;;;;5077666;28;20571;-77
2021/03/16 08:44:46;;;;;;;4.32;0.85;;;;;13.60;102261.00;;;;5087957;28;20263;-78
2021/03/16 08:47:15;;;;;;;2.70;0.80;;;;;13.60;102268.00;;;;5074480;28;20226;-78
2021/03/16 08:49:43;;;;;;;3.85;0.63;;;;;13.70;102266.00;;;;5079887;28;20573;-77
2021/03/16 08:52:17;;;;;;;5.93;1.23;;;;;13.70;102261.00;;;;5087952;28;20248;-77
2021/03/16 08:54:44;;;;;;;4.28;0.85;;;;;13.80;102260.00;;;;5086979;28;20201;-77
2021/03/16 08:57:18;;;;;;;3.03;1.08;;;;;13.80;102259.00;;;;5086691;28;20190;-77
2021/03/16 08:59:48;;;;;;;6.07;1.48;;;;;13.90;102262.00;;;;5068032;28;20279;-77
2021/03/16 09:02:20;;;;;;;6.00;1.20;;;;;13.90;102257.00;;;;5076237;28;20205;-77
2021/03/16 09:04:47;;;;;;;2.78;0.70;;;;;14.00;102262.00;;;;5090449;28;20198;-78
2021/03/16 09:07:20;;;;;;;4.90;1.27;;;;;14.10;102262.00;;;;5091608;28;20195;-77
2021/03/16 09:09:47;;;;;;;3.30;1.13;;;;;14.20;102260.00;;;;5091626;28;20229;-77
2021/03/16 09:12:26;;;;;;;4.80;1.00;;;;;14.20;102269.00;;;;5088535;28;20198;-77
2021/03/16 09:14:52;;;;;;;2.70;1.05;;;;;14.30;102264.00;;;;5070638;28;20253;-78
2021/03/16 09:17:19;;;;;;;6.60;1.15;;;;;14.40;102263.00;;;;5070688;28;20229;-77
2021/03/16 09:19:46;;;;;;;3.25;0.85;;;;;14.40;102266.00;;;;5079931;28;20229;-78
2021/03/16 09:22:15;;;;;;;7.75;1.13;;;;;14.50;102266.00;;;;5082920;28;20194;-78
2021/03/16 09:24:45;;;;;;;4.05;1.48;;;;;14.50;102267.00;;;;5069733;28;20202;-78
2021/03/16 09:27:14;;;;;;;4.65;1.73;;;;;14.50;102259.00;;;;5071763;28;20215;-78
2021/03/16 09:29:42;;;;;;;5.85;0.70;;;;;14.60;102262.00;;;;5087016;28;20584;-78
2021/03/16 09:32:10;;;;;;;4.47;1.00;;;;;14.60;102257.00;;;;5090279;28;20227;-78
2021/03/16 09:34:39;;;;;;;4.90;1.08;;;;;14.60;102269.00;;;;5091065;28;20198;-78
2021/03/16 09:37:08;;;;;;;10.60;1.33;;;;;14.60;102266.00;;;;5085887;28;20222;-77
2021/03/16 09:39:35;;;;;;;6.63;1.25;;;;;14.60;102268.00;;;;5070441;28;20203;-77
2021/03/16 09:42:03;;;;;;;1.90;0.68;;;;;14.60;102278.00;;;;5091221;28;20206;-77
2021/03/16 09:44:35;;;;;;;4.63;0.95;;;;;14.50;102282.00;;;;5091662;28;20586;-77
2021/03/16 09:47:03;;;;;;;1.85;0.52;;;;;14.40;102275.00;;;;5091214;28;20194;-77
2021/03/16 09:49:32;;;;;;;4.03;0.93;;;;;14.40;102278.00;;;;5087880;28;20676;-78
2021/03/16 09:52:03;;;;;;;6.70;1.25;;;;;14.30;102279.00;;;;5086794;28;20218;-78
2021/03/16 09:54:39;;;;;;;3.15;0.60;;;;;14.30;102270.00;;;;5086528;28;20198;-78
2021/03/16 09:57:07;;;;;;;5.20;1.65;;;;;14.30;102273.00;;;;5083431;28;20217;-78
2021/03/16 09:59:36;;;;;;;9.10;1.38;;;;;14.30;102271.00;;;;5074096;28;20225;-78
2021/03/16 10:02:04;;;;;;;4.38;1.25;;;;;14.30;102272.00;;;;5090583;28;20191;-78
2021/03/16 10:04:42;;;;;;;3.65;1.00;;;;;14.30;102279.00;;;;5090150;28;20194;-79
2021/03/16 10:07:09;;;;;;;4.78;1.33;;;;;14.30;102283.00;;;;5090780;28;20239;-78
2021/03/16 10:09:40;;;;;;;2.60;0.65;;;;;14.30;102268.00;;;;5076445;28;20196;-78
2021/03/16 10:12:16;;;;;;;4.88;0.77;;;;;14.30;102271.00;;;;5088855;28;20210;-77
2021/03/16 10:14:44;;;;;;;4.63;0.63;;;;;14.30;102276.00;;;;5070754;28;20206;-77
2021/03/16 10:17:11;;;;;;;2.13;0.73;;;;;14.30;102270.00;;;;5070464;28;20206;-77
2021/03/16 10:19:39;;;;;;;4.20;0.85;;;;;14.30;102272.00;;;;5070681;28;20198;-77
2021/03/16 10:22:15;;;;;;;2.45;0.77;;;;;14.30;102282.00;;;;5078883;28;20203;-77
2021/03/16 10:24:43;;;;;;;1.83;0.50;;;;;14.40;102277.00;;;;5083973;28;20206;-78
2021/03/16 10:27:10;;;;;;;2.38;0.60;;;;;14.40;102272.00;;;;5087834;28;20724;-78
2021/03/16 10:29:38;;;;;;;1.00;0.63;;;;;14.40;102276.00;;;;5092540;28;20698;-79
2021/03/16 10:32:05;;;;;;;2.47;0.40;;;;;14.50;102273.00;;;;5088412;28;20250;-79
2021/03/16 10:34:32;;;;;;;3.35;1.23;;;;;14.50;102268.00;;;;5078879;28;20203;-78
2021/03/16 10:36:59;;;;;;;3.15;0.20;;;;;14.50;102271.00;;;;5082251;28;20556;-78
2021/03/16 10:39:26;;;;;;;3.72;0.82;;;;;14.50;102271.00;;;;5090579;28;20194;-79
2021/03/16 10:41:53;;;;;;;1.83;0.55;;;;;14.60;102268.00;;;;5088224;28;20210;-78
2021/03/16 10:44:19;;;;;;;0.80;0.20;;;;;14.60;102258.00;;;;5089543;28;20209;-78
2021/03/16 10:46:46;;;;;;;0.40;0.30;;;;;14.70;102256.00;;;;5088833;28;20202;-78
2021/03/16 10:49:13;;;;;;;0.82;0.50;;;;;14.70;102251.00;;;;5082421;28;20199;-78
2021/03/16 10:51:40;;;;;;;1.02;0.47;;;;;14.70;102260.00;;;;5086785;28;20564;-78
2021/03/16 10:54:07;;;;;;;1.67;0.38;;;;;14.70;102258.00;;;;5089766;28;20202;-77
2021/03/16 10:56:34;;;;;;;0.57;0.30;;;;;14.70;102263.00;;;;5089038;28;20205;-79
2021/03/16 10:59:00;;;;;;;2.78;0.60;;;;;14.80;102269.00;;;;5089027;28;20575;-78
2021/03/16 11:01:27;;;;;;;3.63;0.60;;;;;14.80;102256.00;;;;5088862;28;20226;-78
2021/03/16 11:03:54;;;;;;;10.85;1.00;;;;;14.80;102261.00;;;;5075692;28;20198;-78
2021/03/16 11:06:21;;;;;;;1.25;0.63;;;;;14.80;102252.00;;;;5084804;28;20264;-79
2021/03/16 11:08:48;;;;;;;3.03;0.45;;;;;14.80;102258.00;;;;5070140;28;20202;-79
2021/03/16 11:11:15;;;;;;;1.33;0.50;;;;;14.90;102263.00;;;;5074423;28;20240;-79
2021/03/16 11:13:42;;;;;;;7.32;1.08;;;;;14.90;102264.00;;;;5088642;28;20695;-78
2021/03/16 11:16:09;;;;;;;4.45;0.50;;;;;14.90;102262.00;;;;5089240;28;20615;-78
2021/03/16 11:18:36;;;;;;;0.98;0.30;;;;;14.90;102261.00;;;;5087383;28;20288;-78
2021/03/16 11:21:03;;;;;;;1.45;0.60;;;;;14.90;102258.00;;;;5088779;28;20240;-78
2021/03/16 11:23:29;;;;;;;4.05;0.60;;;;;15.00;102267.00;;;;5089141;28;20190;-79
2021/03/16 11:25:57;;;;;;;2.38;0.77;;;;;15.00;102259.00;;;;5089214;28;20217;-79
2021/03/16 11:28:23;;;;;;;2.63;0.77;;;;;15.00;102257.00;;;;5089408;28;20586;-78
2021/03/16 11:30:50;;;;;;;1.05;0.45;;;;;15.00;102248.00;;;;5084845;28;20218;-78
2021/03/16 11:33:17;;;;;;;5.25;0.73;;;;;14.90;102247.00;;;;5087383;28;20197;-79
2021/03/16 11:35:44;;;;;;;2.67;0.43;;;;;14.90;102252.00;;;;5081836;28;20198;-79
2021/03/16 11:38:10;;;;;;;2.97;0.70;;;;;14.90;102254.00;;;;5080223;28;20705;-78
2021/03/16 11:40:37;;;;;;;2.80;0.85;;;;;14.90;102246.00;;;;5070713;28;20317;-78
2021/03/16 11:43:05;;;;;;;2.22;0.60;;;;;14.90;102249.00;;;;5068531;28;20625;-78
2021/03/16 11:45:31;;;;;;;2.83;0.70;;;;;14.80;102251.00;;;;5068503;28;20206;-78
2021/03/16 11:47:58;;;;;;;2.30;0.90;;;;;14.80;102252.00;;;;5068960;28;20253;-77
2021/03/16 11:50:25;;;;;;;2.40;0.60;;;;;14.80;102251.00;;;;5084765;28;20197;-78
2021/03/16 11:52:52;;;;;;;1.58;0.47;;;;;14.70;102248.00;;;;5088028;28;20710;-78
2021/03/16 11:55:18;;;;;;;3.05;0.50;;;;;14.70;102248.00;;;;5089261;28;20660;-78
2021/03/16 11:57:45;;;;;;;1.10;0.40;;;;;14.70;102242.00;;;;5087933;28;20205;-78
2021/03/16 12:00:14;;;;;;;1.85;0.60;;;;;14.70;102234.00;;;;5088927;28;20226;-78
2021/03/16 12:02:41;;;;;;;2.53;0.88;;;;;14.70;102241.00;;;;5089046;28;20205;-78
2021/03/16 12:05:08;;;;;;;0.90;0.55;;;;;14.80;102237.00;;;;5089121;28;20205;-78
2021/03/16 12:07:36;;;;;;;2.78;0.73;;;;;14.80;102237.00;;;;5088490;28;20217;-78
2021/03/16 12:10:04;;;;;;;2.22;0.60;;;;;14.90;102248.00;;;;5086654;28;20198;-77
2021/03/16 12:12:30;;;;;;;2.15;0.93;;;;;15.00;102248.00;;;;5081684;28;20204;-78
2021/03/16 12:14:57;;;;;;;1.42;0.40;;;;;15.00;102247.00;;;;5075023;28;20203;-78